Portada
METAR-TAF:

METAR-TAF

Aeroports :

Obihiro, Japó

latitud: 42-44N, longitud: 143-13E, altitud: 149 m

Observació

L'informe es va fer fa 1 hora i 12 minuts, a les 01:00 UTC
Vent 1 kt amb direcció variable
Temperatura -11°C
Humitat 85%
Pressió 1011 hPa
Visibilitat 10 km o més
Escasses núvols a una alçada de 200 ft
Cel ennuvolat a una alçada de 1500 ft
xàfecs de neu

METAR: RJCB 280100Z VRB01KT 9999 -SHSN FEW002 BKN015 M11/M13 Q1011

Hora: 11:12 (02:12 UTC)

Pronòstic

L'informe es va fer fa 3 hores i 7 minuts, a les 23:05 UTC
Pronòstic vàlid del 28 a les 00 UTC al 29 a les 06 UTC
Vent 6 kt del Nord
Visibilitat 10 km o més
Escasses núvols a una alçada de 3000 ft
Cel ennuvolat a una alçada de 5000 ft
Evolucionant progressivament
l' 28 a les 12 UTC al 28 a les 15 UTC
Vent 5 kt del Sud
Evolucionant progressivament
l' 29 a les 00 UTC al 29 a les 03 UTC
Vent 5 kt del Oest

TAF: RJCB 272305Z 2800/2906 01006KT 9999 FEW030 BKN050 BECMG 2812/2815 19005KT BECMG 2900/2903 28005KT

Observacions i pronòstics meteorològics de més de 4000 aeroports (METAR i TAF).

Les estacions disponibles són els punts grocs i vermells al mapa.

Posi el ratolí al punt desitjat per veure el nom de l'estació.

Feu clic per veure les observacions i els pronòstics meteorològics.

Per canviar el mapa: feu clic els botons verds amb una creu de color negre per apropar; al botó verd amb un guió per allunyar la imatge; o en les fletxes verdes per a mapes adjacents.


METAR-TAF: